This is the latest recevied weather packets stored in our database for station/object KJ5IMV-13. If no packets are shown the sender has not sent any weather packets the latest 10 day(s).
| Time | Temp. | Humidity | Pressure | Rain* | Wind** | Luminosity | Snow |
|---|---|---|---|---|---|---|---|
| 1787756697 | 31.67° C | 84% | 1012 hPa | - | - | - | - |
| 1787756395 | 31.11° C | 84% | 1012.1 hPa | - | - | - | - |
| 1787756094 | 31.11° C | 84% | 1012.1 hPa | - | - | - | - |
| 1787755491 | 31.11° C | 85% | 1012 hPa | - | - | - | - |
| 1787754285 | 30.56° C | 88% | 1012 hPa | - | - | - | - |
| 1787751934 | 29.44° C | 90% | 1011.8 hPa | - | - | - | - |
| 1787751874 | 29.44° C | 90% | 1011.8 hPa | - | - | - | - |
| 1787749765 | 27.22° C | 96% | 1011.6 hPa | - | - | - | - |
| 1787738312 | 26.67° C | 95% | 1009.9 hPa | - | - | - | - |
| 1787723543 | 27.78° C | 87% | 1010.3 hPa | - | - | - | - |
| 1787723243 | 27.78° C | 87% | 1010.3 hPa | - | - | - | - |
| 1787722338 | 27.78° C | 86% | 1010.5 hPa | - | - | - | - |
| 1787722036 | 28.33° C | 86% | 1010.7 hPa | - | - | - | - |
| 1787721735 | 28.33° C | 86% | 1010.6 hPa | - | - | - | - |
| 1787721434 | 28.33° C | 85% | 1010.5 hPa | - | - | - | - |
| 1787720228 | 28.33° C | 84% | 1010.4 hPa | - | - | - | - |
| 1787719023 | 28.89° C | 82% | 1010.7 hPa | - | - | - | - |
| 1787718420 | 28.89° C | 82% | 1010.5 hPa | - | - | - | - |
| 1787717818 | 29.44° C | 81% | 1010.5 hPa | - | - | - | - |
| 1787717516 | 29.44° C | 80% | 1010.6 hPa | - | - | - | - |
| 1787706968 | 32.78° C | 70% | 1008.8 hPa | - | - | - | - |
| 1787706365 | 33.33° C | 69% | 1008.6 hPa | - | - | - | - |
| 1787704858 | 33.33° C | 70% | 1008.5 hPa | - | - | - | - |
| 1787704556 | 33.33° C | 70% | 1008.4 hPa | - | - | - | - |
| 1787699433 | 36.67° C | 59% | 1008.4 hPa | - | - | - | - |
* Rain since midnight (hover to see other rain measurements)
** Current wind speed in m/s (hover to see current wind gust speed)